createdAt,value
2023-01-23T00:01:31.388Z,73.03
2023-01-23T00:04:00.701Z,73.62
2023-01-23T00:06:29.285Z,73.57
2023-01-23T00:08:57.727Z,73.31
2023-01-23T00:11:28.502Z,73.07
2023-01-23T00:13:58.551Z,73.60
2023-01-23T00:16:28.486Z,73.37
2023-01-23T00:18:57.119Z,72.98
2023-01-23T00:21:27.626Z,72.51
2023-01-23T00:23:57.515Z,73.32
2023-01-23T00:26:27.145Z,73.44
2023-01-23T00:28:56.026Z,73.27
2023-01-23T00:31:27.047Z,72.64
2023-01-23T00:33:56.811Z,73.17
2023-01-23T00:36:25.417Z,72.58
2023-01-23T00:38:56.094Z,73.07
2023-01-23T00:41:24.196Z,72.75
2023-01-23T00:43:52.311Z,73.21
2023-01-23T00:46:20.613Z,73.47
2023-01-23T00:48:50.372Z,73.62
2023-01-23T00:51:20.137Z,74.13
2023-01-23T00:53:48.207Z,74.07
2023-01-23T00:56:16.181Z,73.72
2023-01-23T00:58:45.245Z,73.85
2023-01-23T01:01:13.985Z,75.09
2023-01-23T01:03:42.270Z,74.28
2023-01-23T01:06:12.272Z,73.87
2023-01-23T01:08:40.335Z,73.57
2023-01-23T01:11:09.024Z,73.84
2023-01-23T01:13:37.421Z,74.61
2023-01-23T01:16:06.131Z,73.13
2023-01-23T01:18:34.260Z,73.43
2023-01-23T01:21:02.396Z,73.50
2023-01-23T01:23:31.620Z,74.34
2023-01-23T01:26:00.479Z,74.49
2023-01-23T01:28:30.321Z,74.03
2023-01-23T01:30:58.660Z,72.95
2023-01-23T01:33:28.735Z,74.67
2023-01-23T01:35:58.037Z,73.53
2023-01-23T01:38:26.251Z,74.18
2023-01-23T01:40:57.285Z,74.10
2023-01-23T01:43:26.951Z,74.01
2023-01-23T01:46:07.712Z,73.84
2023-01-23T01:48:41.601Z,73.41
2023-01-23T01:51:18.417Z,73.55
2023-01-23T01:53:49.908Z,74.13
2023-01-23T01:56:20.096Z,74.14
2023-01-23T01:58:53.005Z,74.27
2023-01-23T02:01:21.563Z,73.60
2023-01-23T02:03:51.832Z,74.20
2023-01-23T02:06:20.670Z,72.94
2023-01-23T02:08:54.534Z,73.45
2023-01-23T02:11:24.171Z,73.06
2023-01-23T02:13:55.307Z,72.59
2023-01-23T02:16:28.128Z,72.60
2023-01-23T02:19:00.593Z,73.34
2023-01-23T02:21:29.114Z,72.42
2023-01-23T02:24:19.635Z,72.84
2023-01-23T02:26:48.990Z,73.17
2023-01-23T02:29:19.234Z,73.06
2023-01-23T02:31:56.242Z,73.20
2023-01-23T02:34:26.055Z,73.61
2023-01-23T02:36:58.779Z,74.10
2023-01-23T02:39:27.600Z,73.13
2023-01-23T02:42:00.571Z,74.50
2023-01-23T02:44:43.348Z,73.59
2023-01-23T02:47:12.470Z,72.85
2023-01-23T02:49:42.829Z,73.43
2023-01-23T02:52:11.477Z,72.97
2023-01-23T02:54:40.348Z,72.74
2023-01-23T02:57:10.210Z,72.78
2023-01-23T02:59:57.239Z,72.72
2023-01-23T03:02:26.569Z,72.46
2023-01-23T03:04:54.614Z,72.72
2023-01-23T03:07:22.514Z,71.98
2023-01-23T03:09:51.051Z,72.54
2023-01-23T03:12:20.325Z,72.29
2023-01-23T03:14:48.579Z,72.74
2023-01-23T03:17:16.535Z,73.87
2023-01-23T03:19:44.427Z,73.04
2023-01-23T03:22:12.376Z,72.97
2023-01-23T03:24:40.516Z,74.53
2023-01-23T03:27:08.611Z,73.96
2023-01-23T03:30:04.207Z,73.85
2023-01-23T03:32:32.129Z,73.76
2023-01-23T03:35:00.701Z,73.39
2023-01-23T03:37:29.079Z,73.59
2023-01-23T03:40:15.829Z,75.64
2023-01-23T03:42:44.241Z,75.20
2023-01-23T03:45:16.682Z,74.28
2023-01-23T03:47:44.681Z,73.34
2023-01-23T03:50:12.667Z,73.22
2023-01-23T03:52:41.196Z,74.74
2023-01-23T03:55:10.603Z,75.40
2023-01-23T03:57:39.335Z,74.62
2023-01-23T04:00:28.881Z,73.40
2023-01-23T04:03:01.603Z,72.44
2023-01-23T04:05:30.091Z,72.35
2023-01-23T04:07:58.116Z,72.93
2023-01-23T04:10:26.804Z,71.79
2023-01-23T04:12:58.066Z,72.23
2023-01-23T04:15:28.391Z,73.35
2023-01-23T04:17:58.574Z,72.97
2023-01-23T04:20:27.259Z,73.63
2023-01-23T04:22:57.017Z,73.56
2023-01-23T04:25:25.050Z,73.53
2023-01-23T04:27:53.575Z,75.36
2023-01-23T04:30:22.169Z,75.99
2023-01-23T04:32:51.862Z,77.23
2023-01-23T04:35:20.958Z,76.20
2023-01-23T04:37:48.899Z,76.84
2023-01-23T04:40:18.017Z,76.75
2023-01-23T04:42:56.200Z,76.40
2023-01-23T04:45:32.277Z,75.10
2023-01-23T04:48:14.686Z,74.04
2023-01-23T04:50:44.069Z,73.12
2023-01-23T04:53:12.357Z,73.16
2023-01-23T04:55:40.521Z,73.28
2023-01-23T04:58:12.473Z,72.40
2023-01-23T05:00:41.121Z,71.76
2023-01-23T05:03:09.161Z,71.17
2023-01-23T05:05:44.225Z,72.20
2023-01-23T05:08:12.622Z,71.67
2023-01-23T05:10:41.856Z,72.52
2023-01-23T05:13:12.707Z,72.38
2023-01-23T05:15:41.111Z,71.43
2023-01-23T05:18:09.045Z,71.10
2023-01-23T05:20:37.488Z,71.90
2023-01-23T05:23:07.678Z,73.83
2023-01-23T05:25:47.458Z,74.83
2023-01-23T05:28:15.458Z,75.74
2023-01-23T05:30:48.987Z,75.29
2023-01-23T05:33:23.694Z,74.54
2023-01-23T05:35:51.651Z,74.43
2023-01-23T05:38:21.330Z,75.04
2023-01-23T05:40:51.478Z,74.30
2023-01-23T05:43:37.900Z,74.09
2023-01-23T05:46:25.921Z,72.89
2023-01-23T05:48:54.242Z,72.14
2023-01-23T05:51:23.506Z,71.68
2023-01-23T05:53:53.828Z,71.51
2023-01-23T05:56:21.888Z,71.45
2023-01-23T05:59:24.574Z,72.00
2023-01-23T06:02:12.979Z,73.53
2023-01-23T06:04:59.199Z,72.68
2023-01-23T06:07:39.008Z,74.84
2023-01-23T06:10:12.023Z,73.42
2023-01-23T06:12:40.070Z,72.35
2023-01-23T06:15:09.335Z,72.82
2023-01-23T06:17:37.466Z,73.77
2023-01-23T06:20:07.115Z,72.32
2023-01-23T06:22:35.244Z,72.25
2023-01-23T06:25:08.603Z,71.75
2023-01-23T06:27:38.683Z,72.64
2023-01-23T06:30:10.871Z,71.36
2023-01-23T06:32:41.875Z,72.43
2023-01-23T06:35:11.378Z,71.93
2023-01-23T06:37:42.314Z,72.36
2023-01-23T06:40:13.948Z,72.08
2023-01-23T06:42:50.960Z,71.40
2023-01-23T06:45:19.379Z,71.64
2023-01-23T06:47:47.706Z,70.92
2023-01-23T06:50:17.570Z,72.44
2023-01-23T06:52:45.696Z,72.12
2023-01-23T06:55:14.691Z,71.62
2023-01-23T06:57:45.031Z,71.48
2023-01-23T07:00:16.543Z,71.11
2023-01-23T07:02:45.796Z,71.66
2023-01-23T07:05:14.661Z,71.96
2023-01-23T07:07:46.583Z,71.76
2023-01-23T07:10:14.675Z,72.23
2023-01-23T07:12:42.610Z,73.69
2023-01-23T07:15:12.110Z,73.38
2023-01-23T07:17:43.765Z,72.29
2023-01-23T07:20:12.951Z,72.61
2023-01-23T07:22:43.805Z,72.10
2023-01-23T07:25:11.745Z,71.91
2023-01-23T07:27:39.651Z,71.28
2023-01-23T07:30:08.815Z,71.68
2023-01-23T07:32:36.744Z,71.55
2023-01-23T07:35:07.179Z,70.56
2023-01-23T07:37:35.618Z,71.39
2023-01-23T07:40:03.757Z,71.62
2023-01-23T07:42:31.726Z,71.57
2023-01-23T07:44:59.644Z,71.83
2023-01-23T07:47:27.656Z,71.85
2023-01-23T07:49:55.519Z,71.70
2023-01-23T07:52:24.890Z,71.17
2023-01-23T07:54:52.767Z,71.38
2023-01-23T07:57:20.765Z,71.19
2023-01-23T07:59:48.978Z,70.91
2023-01-23T08:02:16.847Z,71.18
2023-01-23T08:04:44.789Z,70.65
2023-01-23T08:07:12.744Z,70.13
2023-01-23T08:09:42.018Z,69.63
2023-01-23T08:12:09.961Z,69.54
2023-01-23T08:14:37.912Z,70.22
2023-01-23T08:17:06.587Z,70.43
2023-01-23T08:19:34.475Z,69.55
2023-01-23T08:22:02.380Z,69.75
2023-01-23T08:24:30.301Z,70.04
2023-01-23T08:26:59.713Z,69.58
2023-01-23T08:29:27.768Z,69.16
2023-01-23T08:31:55.789Z,69.58
2023-01-23T08:34:24.091Z,68.84
2023-01-23T08:36:52.443Z,69.11
2023-01-23T08:39:21.141Z,70.32
2023-01-23T08:41:49.095Z,70.30
2023-01-23T08:44:18.431Z,70.98
2023-01-23T08:46:46.975Z,69.83
2023-01-23T08:49:14.909Z,71.77
2023-01-23T08:51:42.816Z,72.24
2023-01-23T08:54:10.694Z,71.77
2023-01-23T08:56:40.962Z,71.29
2023-01-23T08:59:09.017Z,70.56
2023-01-23T09:01:38.335Z,70.00
2023-01-23T09:04:06.453Z,69.79
2023-01-23T09:06:34.463Z,70.11
2023-01-23T09:09:02.595Z,68.87
2023-01-23T09:11:30.515Z,69.36
2023-01-23T09:13:58.516Z,68.67
2023-01-23T09:16:26.460Z,69.60
2023-01-23T09:18:57.324Z,69.37
2023-01-23T09:21:25.470Z,69.31
2023-01-23T09:23:53.487Z,69.37
2023-01-23T09:26:21.400Z,69.93
2023-01-23T09:28:49.308Z,69.35
2023-01-23T09:31:17.267Z,69.05
2023-01-23T09:33:45.210Z,68.80
2023-01-23T09:36:14.465Z,68.77
2023-01-23T09:38:42.389Z,68.74
2023-01-23T09:41:16.849Z,69.65
2023-01-23T09:43:53.039Z,69.15
2023-01-23T09:46:26.113Z,69.52
2023-01-23T09:49:00.259Z,70.20
2023-01-23T09:51:35.408Z,69.37
2023-01-23T09:54:12.186Z,69.43
2023-01-23T09:56:45.114Z,69.51
2023-01-23T09:59:15.609Z,68.91
2023-01-23T10:01:43.571Z,68.23
2023-01-23T10:04:13.818Z,67.62
2023-01-23T10:07:14.782Z,68.27
2023-01-23T10:10:02.724Z,66.97
2023-01-23T10:12:45.774Z,67.22
2023-01-23T10:15:25.062Z,67.42
2023-01-23T10:18:03.863Z,67.63
2023-01-23T10:20:51.041Z,68.83
2023-01-23T10:23:47.883Z,68.05
2023-01-23T10:26:21.747Z,69.00
2023-01-23T10:28:49.823Z,67.64
2023-01-23T10:31:30.063Z,67.30
2023-01-23T10:34:07.969Z,68.10
2023-01-23T10:36:47.830Z,68.43
2023-01-23T10:39:28.406Z,67.94
2023-01-23T10:42:02.019Z,67.76
2023-01-23T10:44:31.027Z,67.99
2023-01-23T10:47:03.737Z,67.92
2023-01-23T10:49:35.238Z,67.45
2023-01-23T10:52:03.335Z,67.48
2023-01-23T10:54:45.786Z,67.50
2023-01-23T10:57:24.395Z,67.01
2023-01-23T10:59:56.805Z,67.08
2023-01-23T11:02:29.914Z,67.28
2023-01-23T11:04:57.883Z,68.52
2023-01-23T11:07:27.565Z,67.05
2023-01-23T11:09:59.115Z,66.88
2023-01-23T11:12:29.132Z,67.15
2023-01-23T11:15:13.129Z,67.77
2023-01-23T11:17:43.347Z,67.87
2023-01-23T11:20:26.252Z,66.46
2023-01-23T11:23:07.057Z,68.28
2023-01-23T11:25:38.514Z,67.35
2023-01-23T11:28:23.451Z,67.52
2023-01-23T11:31:03.779Z,66.34
2023-01-23T11:33:44.366Z,66.35
2023-01-23T11:36:31.066Z,66.21
2023-01-23T11:39:04.943Z,65.27
2023-01-23T11:41:36.953Z,66.63
2023-01-23T11:44:11.313Z,66.27
2023-01-23T11:47:01.616Z,64.95
2023-01-23T11:49:51.434Z,65.39
2023-01-23T11:52:31.680Z,66.85
2023-01-23T11:55:18.597Z,67.00
2023-01-23T11:57:58.596Z,66.54
2023-01-23T12:00:33.887Z,66.50
2023-01-23T12:03:47.509Z,65.86
2023-01-23T12:06:30.958Z,66.62
2023-01-23T12:09:03.816Z,65.08
2023-01-23T12:11:39.602Z,65.39
2023-01-23T12:14:17.164Z,66.08
2023-01-23T12:17:02.919Z,65.26
2023-01-23T12:20:02.698Z,65.71
2023-01-23T12:22:43.705Z,65.53
2023-01-23T12:25:24.354Z,65.09
2023-01-23T12:28:01.835Z,65.27
2023-01-23T12:30:54.209Z,64.96
2023-01-23T12:33:39.406Z,64.76
2023-01-23T12:36:31.464Z,64.18
2023-01-23T12:39:10.548Z,63.73
2023-01-23T12:41:43.899Z,64.69
2023-01-23T12:44:17.712Z,64.79
2023-01-23T12:46:52.551Z,65.35
2023-01-23T12:49:30.827Z,64.96
2023-01-23T12:52:03.597Z,64.58
2023-01-23T12:54:38.325Z,63.82
2023-01-23T12:57:09.306Z,63.49
2023-01-23T12:59:53.141Z,64.07
2023-01-23T13:02:35.445Z,65.58
2023-01-23T13:05:16.437Z,65.12
2023-01-23T13:07:53.498Z,64.94
2023-01-23T13:11:04.955Z,62.93
2023-01-23T13:13:33.575Z,64.04
2023-01-23T13:16:12.491Z,63.31
2023-01-23T13:19:10.347Z,64.80
2023-01-23T13:21:55.497Z,64.35
2023-01-23T13:24:50.422Z,64.58
2023-01-23T13:27:45.533Z,63.49
2023-01-23T13:30:43.326Z,64.31
2023-01-23T13:33:55.301Z,64.56
2023-01-23T13:36:29.653Z,64.10
2023-01-23T13:39:23.732Z,64.03
2023-01-23T13:41:53.919Z,64.45
2023-01-23T13:44:35.808Z,64.57
2023-01-23T14:22:08.469Z,63.10
2023-01-23T14:24:45.019Z,63.10
2023-01-23T14:27:22.021Z,62.35
2023-01-23T14:29:59.559Z,63.19
2023-01-23T14:32:30.923Z,64.02
2023-01-23T14:34:59.213Z,63.95
2023-01-23T14:37:29.262Z,63.47
2023-01-23T14:40:09.908Z,63.09
2023-01-23T14:42:40.347Z,63.52
2023-01-23T14:45:13.785Z,64.83
2023-01-23T14:47:46.963Z,63.72
2023-01-23T14:50:19.755Z,63.90
2023-01-23T14:52:57.742Z,63.49
2023-01-23T14:55:30.259Z,63.54
2023-01-23T14:58:01.141Z,65.20
2023-01-23T15:00:30.389Z,64.76
2023-01-23T15:02:58.478Z,64.96
2023-01-23T15:05:28.332Z,65.17
2023-01-23T15:07:59.082Z,64.37
2023-01-23T15:10:30.681Z,63.87
2023-01-23T15:13:02.046Z,64.42
2023-01-23T15:15:31.679Z,63.93
2023-01-23T15:18:01.493Z,64.69
2023-01-23T15:20:32.913Z,64.05
2023-01-23T15:23:21.920Z,64.04
2023-01-23T15:26:00.875Z,64.76
2023-01-23T15:28:39.481Z,64.63
2023-01-23T15:31:22.097Z,65.54
2023-01-23T15:33:50.107Z,64.31
2023-01-23T15:36:26.266Z,64.70
2023-01-23T15:38:55.148Z,63.85
2023-01-23T15:41:40.841Z,64.88
2023-01-23T15:44:17.207Z,64.22
2023-01-23T15:46:45.146Z,64.66
2023-01-23T15:49:24.352Z,65.25
2023-01-23T15:51:53.386Z,64.91
2023-01-23T15:54:25.338Z,64.54
2023-01-23T15:57:06.542Z,64.40
2023-01-23T15:59:36.833Z,65.49
2023-01-23T16:02:05.155Z,66.58
2023-01-23T16:04:33.046Z,65.65
2023-01-23T16:07:05.917Z,67.78
2023-01-23T16:09:36.991Z,66.80
2023-01-23T16:12:06.909Z,66.65
2023-01-23T16:14:34.798Z,65.72
2023-01-23T16:17:15.949Z,66.48
2023-01-23T16:19:44.953Z,65.60
2023-01-23T16:22:23.674Z,65.80
2023-01-23T16:24:51.633Z,66.08
2023-01-23T16:27:27.131Z,65.63
2023-01-23T16:29:55.710Z,66.94
2023-01-23T16:32:25.087Z,67.34
2023-01-23T16:34:53.206Z,65.60
2023-01-23T16:37:21.300Z,66.99
2023-01-23T16:39:49.226Z,66.80
2023-01-23T16:42:21.972Z,66.60
2023-01-23T16:44:50.147Z,66.17
2023-01-23T16:47:18.252Z,65.88
2023-01-23T16:49:52.618Z,66.56
2023-01-23T16:52:24.423Z,66.17
2023-01-23T16:54:53.573Z,66.41
2023-01-23T16:57:23.642Z,66.34
2023-01-23T16:59:52.251Z,66.98
2023-01-23T17:02:23.734Z,66.89
2023-01-23T17:04:51.847Z,66.77
2023-01-23T17:07:20.576Z,66.37
2023-01-23T17:09:49.246Z,66.24
2023-01-23T17:12:22.005Z,66.04
2023-01-23T17:14:52.938Z,66.34
2023-01-23T17:17:29.999Z,66.13
2023-01-23T17:19:58.476Z,66.33
2023-01-23T17:22:30.443Z,66.22
2023-01-23T17:24:58.532Z,67.08
2023-01-23T17:27:26.564Z,66.27
2023-01-23T17:29:55.784Z,66.23
2023-01-23T17:32:29.909Z,65.80
2023-01-23T17:35:01.627Z,66.29
2023-01-23T17:37:31.128Z,65.83
2023-01-23T17:39:59.033Z,66.17
2023-01-23T17:42:27.033Z,65.90
2023-01-23T17:44:56.354Z,64.76
2023-01-23T17:47:24.426Z,65.88
2023-01-23T17:49:54.726Z,65.63
2023-01-23T17:52:24.897Z,65.69
2023-01-23T17:54:54.403Z,65.98
2023-01-23T17:57:22.464Z,64.80
2023-01-23T17:59:51.572Z,65.69
2023-01-23T18:02:27.286Z,65.34
2023-01-23T18:04:56.211Z,65.44
2023-01-23T18:07:24.107Z,66.39
2023-01-23T18:09:52.522Z,65.17
2023-01-23T18:12:29.977Z,66.37
2023-01-23T18:15:07.455Z,65.66
2023-01-23T18:17:44.401Z,65.78
2023-01-23T18:20:20.291Z,65.46
2023-01-23T18:22:48.854Z,66.50
2023-01-23T18:25:18.855Z,65.47
2023-01-23T18:27:50.210Z,66.01
2023-01-23T18:30:36.179Z,64.49
2023-01-23T18:33:34.183Z,65.24
2023-01-23T18:36:20.203Z,65.74
2023-01-23T18:39:03.981Z,64.71
2023-01-23T18:41:32.360Z,65.41
2023-01-23T18:44:11.947Z,64.92
2023-01-23T18:46:41.432Z,64.82
2023-01-23T18:49:14.934Z,65.28
2023-01-23T18:51:50.189Z,64.92
2023-01-23T18:54:25.603Z,65.71
2023-01-23T18:57:07.388Z,65.59
2023-01-23T18:59:44.233Z,64.94
2023-01-23T19:02:22.292Z,64.30
2023-01-23T19:04:59.522Z,64.61
2023-01-23T19:07:27.663Z,65.70
2023-01-23T19:09:56.148Z,65.31
2023-01-23T19:12:31.544Z,65.76
2023-01-23T19:15:10.756Z,64.96
2023-01-23T19:17:47.835Z,65.13
2023-01-23T19:20:24.037Z,64.81
2023-01-23T19:23:01.656Z,65.88
2023-01-23T19:25:30.211Z,66.18
2023-01-23T19:28:00.925Z,65.31
2023-01-23T19:30:29.579Z,64.65
2023-01-23T19:32:57.456Z,66.21
2023-01-23T19:35:26.858Z,64.57
2023-01-23T19:37:54.895Z,64.72
2023-01-23T19:40:22.853Z,64.95
2023-01-23T19:43:05.727Z,65.26
2023-01-23T19:45:41.207Z,64.00
2023-01-23T19:48:09.406Z,65.14
2023-01-23T19:50:39.022Z,64.53
2023-01-23T19:53:07.362Z,64.48
2023-01-23T19:55:38.263Z,64.31
2023-01-23T19:58:06.300Z,65.05
2023-01-23T20:00:36.213Z,64.72
2023-01-23T20:03:05.363Z,64.56
2023-01-23T20:05:33.485Z,64.94
2023-01-23T20:08:02.793Z,64.28
2023-01-23T20:10:30.740Z,65.05
2023-01-23T20:12:58.563Z,64.91
2023-01-23T20:15:27.636Z,65.75
2023-01-23T20:17:55.560Z,64.76
2023-01-23T20:20:24.135Z,64.68
2023-01-23T20:22:52.264Z,64.39
2023-01-23T20:25:21.911Z,64.56
2023-01-23T20:27:49.979Z,64.18
2023-01-23T20:30:20.273Z,63.82
2023-01-23T20:32:49.117Z,63.95
2023-01-23T20:35:17.043Z,64.57
2023-01-23T20:37:44.972Z,65.10
2023-01-23T20:40:13.198Z,65.46
2023-01-23T20:42:42.507Z,65.71
2023-01-23T20:45:11.057Z,66.05
2023-01-23T20:47:38.906Z,65.97
2023-01-23T20:50:07.454Z,65.71
2023-01-23T20:52:52.506Z,64.76
2023-01-23T20:55:20.747Z,65.82
2023-01-23T20:58:07.676Z,65.61
2023-01-23T21:00:35.548Z,65.72
2023-01-23T21:03:03.554Z,66.58
2023-01-23T21:05:31.472Z,66.95
2023-01-23T21:07:59.390Z,66.21
2023-01-23T21:10:27.272Z,65.63
2023-01-23T21:12:56.496Z,66.29
2023-01-23T21:15:24.335Z,65.97
2023-01-23T21:17:52.197Z,66.38
2023-01-23T21:20:20.122Z,67.82
2023-01-23T21:22:48.101Z,66.78
2023-01-23T21:25:16.022Z,66.95
2023-01-23T21:27:43.919Z,67.62
2023-01-23T21:30:14.058Z,66.88
2023-01-23T21:32:41.970Z,68.93
2023-01-23T21:35:10.640Z,68.40
2023-01-23T21:37:38.506Z,67.44
2023-01-23T21:40:07.859Z,67.44
2023-01-23T21:42:35.760Z,67.62
2023-01-23T21:45:03.679Z,66.56
2023-01-23T21:47:32.916Z,68.45
2023-01-23T21:50:00.785Z,68.55
2023-01-23T21:52:29.603Z,68.60
2023-01-23T21:54:57.598Z,67.12
2023-01-23T21:57:25.468Z,67.25
2023-01-23T22:00:07.210Z,66.30
2023-01-23T22:02:42.328Z,67.05
2023-01-23T22:05:10.577Z,66.53
2023-01-23T22:07:38.501Z,67.04
2023-01-23T22:10:07.444Z,67.54
2023-01-23T22:12:35.317Z,66.63
2023-01-23T22:15:03.409Z,67.46
2023-01-23T22:17:31.679Z,67.81
2023-01-23T22:20:00.873Z,67.00
2023-01-23T22:22:28.769Z,67.26
2023-01-23T22:24:56.649Z,68.29
2023-01-23T22:27:24.762Z,67.79
2023-01-23T22:29:52.576Z,66.98
2023-01-23T22:32:20.501Z,67.75
2023-01-23T22:34:48.428Z,68.63
2023-01-23T22:37:17.757Z,67.66
2023-01-23T22:39:45.672Z,66.71
2023-01-23T22:42:13.743Z,68.23
2023-01-23T22:44:41.567Z,68.44
2023-01-23T22:47:09.533Z,68.32
2023-01-23T22:49:37.455Z,68.43
2023-01-23T22:52:07.020Z,67.62
2023-01-23T22:54:37.753Z,68.15
2023-01-23T22:57:05.682Z,67.54
2023-01-23T22:59:33.591Z,67.40
2023-01-23T23:02:01.483Z,67.66
2023-01-23T23:04:29.503Z,68.62
2023-01-23T23:06:57.395Z,67.89
2023-01-23T23:09:25.337Z,66.73
2023-01-23T23:11:54.541Z,67.55
2023-01-23T23:14:22.471Z,67.66
2023-01-23T23:16:50.363Z,67.61
2023-01-23T23:19:18.276Z,67.67
2023-01-23T23:21:46.133Z,67.43
2023-01-23T23:24:14.901Z,68.26
2023-01-23T23:26:42.957Z,67.71
2023-01-23T23:29:12.440Z,68.41
2023-01-23T23:31:40.523Z,68.74
2023-01-23T23:34:08.807Z,67.34
2023-01-23T23:36:36.810Z,67.20
2023-01-23T23:39:04.774Z,67.22
2023-01-23T23:41:32.638Z,66.35
2023-01-23T23:44:00.614Z,67.40
2023-01-23T23:46:29.847Z,67.17
2023-01-23T23:48:57.805Z,66.18
2023-01-23T23:51:26.640Z,67.20
2023-01-23T23:53:55.631Z,67.52
2023-01-23T23:56:25.383Z,67.25
2023-01-23T23:58:54.134Z,66.71
